Blaydon, United Kingdom
Current Conditions -  °F | °C
As of 8:20 AM on Tuesday 27 Jan 2015 (Local Time) from EGNT Reporting Station
Broken Clouds Broken Clouds  
Wind Chill:   Ceiling: 800
Heat Index:   Visibility: 6mi
Dew Point:   Wind: 15mph
Humidity: 93%   Direction: 260°W
Pressure: 30.18"   Gusts: NA
Location:  54.96°N, 1.71°W
Report Text: EGNT 270820Z 26013KT 9999 BKN008 06/05 Q1022
Loading
Personal Weather Stations






























Interactive Weather Map New forecast layout! Learn more

10-Day Weather Forecast

Advertisements
Track Severe Weather on mobile